createdAt,value
2023-05-18T00:00:25.058Z,0
2023-05-18T00:01:41.184Z,0
2023-05-18T00:02:57.329Z,0
2023-05-18T00:04:13.445Z,0
2023-05-18T00:05:29.582Z,0
2023-05-18T00:06:45.743Z,0
2023-05-18T00:08:01.873Z,0
2023-05-18T00:09:18.001Z,0
2023-05-18T00:10:34.131Z,0
2023-05-18T00:11:50.266Z,0
2023-05-18T00:13:06.418Z,0
2023-05-18T00:14:22.541Z,0
2023-05-18T00:15:38.676Z,0
2023-05-18T00:16:54.806Z,0
2023-05-18T00:18:10.954Z,0
2023-05-18T00:19:27.083Z,0
2023-05-18T00:20:43.229Z,0
2023-05-18T00:21:59.367Z,0
2023-05-18T00:23:15.500Z,0
2023-05-18T00:24:31.625Z,0
2023-05-18T00:25:47.764Z,0
2023-05-18T00:27:03.897Z,0
2023-05-18T00:28:20.042Z,0
2023-05-18T00:29:36.165Z,0
2023-05-18T00:30:52.312Z,0
2023-05-18T00:32:08.518Z,0
2023-05-18T00:33:23.752Z,0
2023-05-18T00:34:38.960Z,0
2023-05-18T00:35:55.109Z,0
2023-05-18T00:37:11.227Z,0
2023-05-18T00:38:27.368Z,0
2023-05-18T00:39:43.504Z,0
2023-05-18T00:40:59.623Z,0
2023-05-18T00:42:15.774Z,0
2023-05-18T00:43:31.904Z,0
2023-05-18T00:44:48.039Z,0
2023-05-18T00:46:04.167Z,0
2023-05-18T00:47:20.309Z,0
2023-05-18T00:48:36.451Z,0
2023-05-18T00:49:52.592Z,0
2023-05-18T00:51:08.723Z,0
2023-05-18T00:52:24.860Z,0
2023-05-18T00:53:40.994Z,0
2023-05-18T00:54:57.143Z,0
2023-05-18T00:56:13.275Z,0
2023-05-18T00:57:29.407Z,0
2023-05-18T00:58:45.538Z,0
2023-05-18T01:00:01.676Z,0
2023-05-18T01:01:17.813Z,0
2023-05-18T01:02:33.939Z,0
2023-05-18T01:03:50.078Z,0
2023-05-18T01:05:06.216Z,0
2023-05-18T01:06:22.401Z,0
2023-05-18T01:07:37.649Z,0
2023-05-18T01:08:52.846Z,0
2023-05-18T01:10:07.998Z,0
2023-05-18T01:11:24.140Z,0
2023-05-18T01:12:40.272Z,0
2023-05-18T01:13:56.408Z,0
2023-05-18T01:15:12.535Z,0
2023-05-18T01:16:28.680Z,0
2023-05-18T01:17:44.000Z,0
2023-05-18T01:19:00.954Z,0
2023-05-18T01:20:17.081Z,0
2023-05-18T01:21:33.208Z,0
2023-05-18T01:22:49.371Z,0
2023-05-18T01:24:05.506Z,0
2023-05-18T01:25:21.633Z,0
2023-05-18T01:26:37.763Z,0
2023-05-18T01:27:53.895Z,0
2023-05-18T01:29:10.052Z,0
2023-05-18T01:30:26.181Z,0
2023-05-18T01:31:42.314Z,0
2023-05-18T01:32:58.439Z,0
2023-05-18T01:34:14.568Z,0
2023-05-18T01:35:30.728Z,0
2023-05-18T01:36:46.855Z,0
2023-05-18T01:38:02.998Z,0
2023-05-18T01:39:19.115Z,0
2023-05-18T01:40:35.000Z,0
2023-05-18T01:41:51.411Z,0
2023-05-18T01:43:07.531Z,0
2023-05-18T01:44:23.676Z,0
2023-05-18T01:45:39.802Z,0
2023-05-18T01:46:55.939Z,0
2023-05-18T01:48:12.081Z,0
2023-05-18T01:49:28.211Z,0
2023-05-18T01:50:44.360Z,0
2023-05-18T01:52:00.475Z,0
2023-05-18T01:53:16.608Z,0
2023-05-18T01:54:32.771Z,0
2023-05-18T01:55:48.899Z,0
2023-05-18T01:57:05.085Z,0
2023-05-18T01:58:20.332Z,0
2023-05-18T01:59:35.542Z,0
2023-05-18T02:00:51.673Z,0
2023-05-18T02:02:07.807Z,0
2023-05-18T02:03:23.933Z,0
2023-05-18T02:04:40.080Z,0
2023-05-18T02:05:56.208Z,0
2023-05-18T02:07:12.347Z,0
2023-05-18T02:08:28.483Z,0
2023-05-18T02:09:44.609Z,0
2023-05-18T02:11:00.761Z,0
2023-05-18T02:12:16.901Z,0
2023-05-18T02:13:33.024Z,0
2023-05-18T02:14:49.166Z,0
2023-05-18T02:16:05.306Z,0
2023-05-18T02:17:21.448Z,0
2023-05-18T02:18:37.584Z,0
2023-05-18T02:19:53.711Z,0
2023-05-18T02:21:09.847Z,0
2023-05-18T02:22:25.978Z,0
2023-05-18T02:23:42.139Z,0
2023-05-18T02:24:58.265Z,0
2023-05-18T02:26:14.391Z,0
2023-05-18T02:27:30.521Z,0
2023-05-18T02:28:46.673Z,0
2023-05-18T02:30:02.815Z,0
2023-05-18T02:31:19.011Z,0
2023-05-18T02:32:34.266Z,0
2023-05-18T02:33:50.451Z,0
2023-05-18T02:35:05.665Z,0
2023-05-18T02:36:21.805Z,0
2023-05-18T02:37:37.928Z,0
2023-05-18T02:38:54.062Z,0
2023-05-18T02:40:10.209Z,0
2023-05-18T02:41:26.341Z,0
2023-05-18T02:42:42.480Z,0
2023-05-18T02:43:58.604Z,0
2023-05-18T02:45:14.748Z,0
2023-05-18T02:46:30.891Z,0
2023-05-18T02:47:47.033Z,4
2023-05-18T02:49:03.156Z,4
2023-05-18T02:50:19.303Z,4
2023-05-18T02:51:35.437Z,0
2023-05-18T02:52:51.585Z,4
2023-05-18T02:54:07.718Z,4
2023-05-18T02:55:23.841Z,4
2023-05-18T02:56:39.972Z,8
2023-05-18T02:57:56.104Z,8
2023-05-18T02:59:12.259Z,12
2023-05-18T03:00:28.388Z,12
2023-05-18T03:01:44.521Z,16
2023-05-18T03:03:00.655Z,16
2023-05-18T03:04:16.789Z,16
2023-05-18T03:05:32.952Z,20
2023-05-18T03:06:49.141Z,20
2023-05-18T03:08:04.384Z,24
2023-05-18T03:09:19.574Z,28
2023-05-18T03:10:35.711Z,32
2023-05-18T03:11:51.840Z,36
2023-05-18T03:13:07.974Z,40
2023-05-18T03:14:24.119Z,44
2023-05-18T03:15:40.258Z,48
2023-05-18T03:16:56.391Z,56
2023-05-18T03:18:12.537Z,56
2023-05-18T03:19:28.660Z,60
2023-05-18T03:20:44.805Z,68
2023-05-18T03:22:00.936Z,76
2023-05-18T03:23:17.070Z,80
2023-05-18T03:24:33.210Z,88
2023-05-18T03:25:49.355Z,96
2023-05-18T03:27:05.483Z,100
2023-05-18T03:28:21.623Z,112
2023-05-18T03:29:37.762Z,124
2023-05-18T03:30:53.892Z,132
2023-05-18T03:32:10.035Z,148
2023-05-18T03:33:26.161Z,160
2023-05-18T03:34:42.317Z,172
2023-05-18T03:35:58.440Z,188
2023-05-18T03:37:14.576Z,204
2023-05-18T03:38:30.701Z,216
2023-05-18T03:39:46.855Z,236
2023-05-18T03:41:03.060Z,252
2023-05-18T03:42:18.285Z,268
2023-05-18T03:43:33.493Z,292
2023-05-18T03:44:49.649Z,312
2023-05-18T03:46:05.773Z,344
2023-05-18T03:47:21.916Z,376
2023-05-18T03:48:38.047Z,412
2023-05-18T03:49:54.168Z,448
2023-05-18T03:51:10.316Z,488
2023-05-18T03:52:26.460Z,516
2023-05-18T03:53:42.590Z,552
2023-05-18T03:54:58.723Z,580
2023-05-18T03:56:14.853Z,608
2023-05-18T03:57:31.015Z,640
2023-05-18T03:58:47.132Z,664
2023-05-18T04:00:03.272Z,692
2023-05-18T04:01:19.414Z,720
2023-05-18T04:02:35.542Z,752
2023-05-18T04:03:51.681Z,788
2023-05-18T04:05:07.827Z,824
2023-05-18T04:06:23.956Z,860
2023-05-18T04:07:40.083Z,896
2023-05-18T04:08:56.218Z,928
2023-05-18T04:10:12.376Z,960
2023-05-18T04:11:28.506Z,980
2023-05-18T04:12:44.633Z,984
2023-05-18T04:14:00.779Z,980
2023-05-18T04:15:16.968Z,988
2023-05-18T04:16:32.201Z,992
2023-05-18T04:17:48.395Z,1012
2023-05-18T04:19:03.604Z,1032
2023-05-18T04:20:19.737Z,1056
2023-05-18T04:21:35.879Z,1084
2023-05-18T04:22:52.005Z,1104
2023-05-18T04:24:08.157Z,1116
2023-05-18T04:25:24.275Z,1136
2023-05-18T04:26:40.430Z,1148
2023-05-18T04:27:56.567Z,1164
2023-05-18T04:29:12.691Z,1176
2023-05-18T04:30:28.829Z,1200
2023-05-18T04:31:44.963Z,1232
2023-05-18T04:33:01.118Z,1264
2023-05-18T04:34:17.240Z,1292
2023-05-18T04:35:33.384Z,1324
2023-05-18T04:36:49.520Z,1348
2023-05-18T04:38:05.647Z,1376
2023-05-18T04:39:21.792Z,1400
2023-05-18T04:40:37.933Z,1448
2023-05-18T04:41:54.061Z,1500
2023-05-18T04:43:10.201Z,1548
2023-05-18T04:44:26.336Z,1584
2023-05-18T04:45:42.471Z,1604
2023-05-18T04:46:58.611Z,1616
2023-05-18T04:48:14.743Z,1620
2023-05-18T04:49:30.869Z,1616
2023-05-18T04:50:47.063Z,1608
2023-05-18T04:52:02.307Z,1620
2023-05-18T04:53:17.525Z,1636
2023-05-18T04:54:33.655Z,1656
2023-05-18T04:55:49.803Z,1680
2023-05-18T04:57:05.933Z,1696
2023-05-18T04:58:22.072Z,1712
2023-05-18T04:59:38.195Z,1728
2023-05-18T05:00:54.341Z,1744
2023-05-18T05:02:10.476Z,1756
2023-05-18T05:03:26.620Z,1768
2023-05-18T05:04:42.743Z,1784
2023-05-18T05:05:58.874Z,1804
2023-05-18T05:07:15.021Z,1828
2023-05-18T05:08:31.155Z,1848
2023-05-18T05:09:47.287Z,1884
2023-05-18T05:11:03.437Z,1920
2023-05-18T05:12:19.572Z,1960
2023-05-18T05:13:35.702Z,2000
2023-05-18T05:14:51.838Z,2044
2023-05-18T05:16:07.986Z,2088
2023-05-18T05:17:24.111Z,2136
2023-05-18T05:18:40.253Z,2192
2023-05-18T05:19:56.383Z,2244
2023-05-18T05:21:12.527Z,2292
2023-05-18T05:22:28.656Z,2340
2023-05-18T05:23:44.789Z,2368
2023-05-18T05:25:00.981Z,2384
2023-05-18T05:26:16.213Z,2420
2023-05-18T05:27:31.424Z,2492
2023-05-18T05:28:46.570Z,2596
2023-05-18T05:30:02.725Z,2720
2023-05-18T05:31:18.849Z,2804
2023-05-18T05:32:34.996Z,2880
2023-05-18T05:33:51.133Z,2964
2023-05-18T05:35:07.261Z,3024
2023-05-18T05:36:23.395Z,3064
2023-05-18T05:37:39.533Z,3096
2023-05-18T05:38:55.672Z,3080
2023-05-18T05:40:11.803Z,3096
2023-05-18T05:41:27.945Z,3132
2023-05-18T05:42:44.083Z,3140
2023-05-18T05:44:00.210Z,3140
2023-05-18T05:45:16.346Z,3156
2023-05-18T05:46:32.472Z,3232
2023-05-18T05:47:48.605Z,3392
2023-05-18T05:49:04.756Z,3572
2023-05-18T05:50:20.899Z,3564
2023-05-18T05:51:37.029Z,3568
2023-05-18T05:52:53.159Z,3568
2023-05-18T05:54:09.285Z,3604
2023-05-18T05:55:25.437Z,3724
2023-05-18T05:56:41.579Z,3640
2023-05-18T05:57:57.713Z,3624
2023-05-18T05:59:13.843Z,3728
2023-05-18T06:00:29.968Z,3816
2023-05-18T06:01:46.121Z,4144
2023-05-18T06:03:02.260Z,4164
2023-05-18T06:04:18.381Z,4292
2023-05-18T06:05:34.515Z,4348
2023-05-18T06:06:50.652Z,4408
2023-05-18T06:08:06.801Z,4472
2023-05-18T06:09:22.930Z,4564
2023-05-18T06:10:39.059Z,4628
2023-05-18T06:11:55.190Z,4664
2023-05-18T06:13:11.336Z,4688
2023-05-18T06:14:27.472Z,4636
2023-05-18T06:15:43.676Z,4724
2023-05-18T06:16:58.905Z,4744
2023-05-18T06:18:14.123Z,4564
2023-05-18T06:19:30.255Z,4704
2023-05-18T06:20:46.388Z,4800
2023-05-18T06:22:02.508Z,4828
2023-05-18T06:23:18.645Z,4872
2023-05-18T06:24:34.799Z,4944
2023-05-18T06:25:50.931Z,5112
2023-05-18T06:27:07.057Z,5316
2023-05-18T06:28:23.192Z,5436
2023-05-18T06:29:39.332Z,5732
2023-05-18T06:30:55.471Z,6036
2023-05-18T06:32:11.611Z,6184
2023-05-18T06:33:27.743Z,6332
2023-05-18T06:34:43.871Z,6488
2023-05-18T06:36:00.005Z,6616
2023-05-18T06:37:16.163Z,6696
2023-05-18T06:38:32.302Z,6752
2023-05-18T06:39:48.433Z,6828
2023-05-18T06:41:04.565Z,6900
2023-05-18T06:42:20.693Z,6956
2023-05-18T06:43:36.831Z,6856
2023-05-18T06:44:52.983Z,6936
2023-05-18T06:46:09.114Z,7000
2023-05-18T06:47:25.241Z,7040
2023-05-18T06:48:41.375Z,7152
2023-05-18T06:49:57.581Z,7144
2023-05-18T06:51:12.832Z,7108
2023-05-18T06:52:29.027Z,7040
2023-05-18T06:53:44.239Z,7072
2023-05-18T06:55:00.369Z,7116
2023-05-18T06:56:16.503Z,7180
2023-05-18T06:57:32.649Z,7220
2023-05-18T06:58:48.775Z,7248
2023-05-18T07:00:04.929Z,7320
2023-05-18T07:01:21.046Z,7368
2023-05-18T07:02:37.187Z,7440
2023-05-18T07:03:53.311Z,7400
2023-05-18T07:05:09.457Z,7432
2023-05-18T07:06:25.603Z,7460
2023-05-18T07:07:41.735Z,7924
2023-05-18T07:08:57.875Z,8176
2023-05-18T07:10:14.007Z,8620
2023-05-18T07:11:30.136Z,9112
2023-05-18T07:12:46.274Z,14504
2023-05-18T07:14:02.406Z,28480
2023-05-18T07:15:18.555Z,34752
2023-05-18T07:16:34.690Z,35584
2023-05-18T07:17:50.805Z,33792
2023-05-18T07:19:06.962Z,32032
2023-05-18T07:20:23.097Z,33184
2023-05-18T07:21:39.221Z,35840
2023-05-18T07:22:55.362Z,25120
2023-05-18T07:24:11.491Z,39360
2023-05-18T07:25:27.712Z,41088
2023-05-18T07:26:42.933Z,41408
2023-05-18T07:27:58.140Z,41952
2023-05-18T07:29:14.294Z,41728
2023-05-18T07:30:30.433Z,39616
2023-05-18T07:31:46.563Z,31328
2023-05-18T07:33:02.688Z,30464
2023-05-18T07:34:18.818Z,27616
2023-05-18T07:35:34.965Z,33440
2023-05-18T07:36:51.102Z,37600
2023-05-18T07:38:07.231Z,40608
2023-05-18T07:39:23.373Z,42816
2023-05-18T07:40:39.517Z,46816
2023-05-18T07:41:55.650Z,48416
2023-05-18T07:43:11.798Z,48736
2023-05-18T07:44:27.915Z,48256
2023-05-18T07:45:44.046Z,47520
2023-05-18T07:47:00.191Z,47680
2023-05-18T07:48:16.330Z,46272
2023-05-18T07:49:32.460Z,45664
2023-05-18T07:50:48.602Z,48448
2023-05-18T07:52:04.735Z,47520
2023-05-18T07:53:20.872Z,46592
2023-05-18T07:54:37.016Z,44832
2023-05-18T07:55:53.144Z,42688
2023-05-18T07:57:09.283Z,43968
2023-05-18T07:58:25.422Z,46144
2023-05-18T07:59:41.617Z,48416
2023-05-18T08:00:56.849Z,49440
2023-05-18T08:02:12.065Z,49408
2023-05-18T08:03:28.196Z,49568
2023-05-18T08:04:44.346Z,49152
2023-05-18T08:06:00.478Z,49312
2023-05-18T08:07:16.617Z,49312
2023-05-18T08:08:32.740Z,48608
2023-05-18T08:09:48.882Z,48800
2023-05-18T08:11:05.014Z,47168
2023-05-18T08:12:21.162Z,47840
2023-05-18T08:13:37.294Z,46176
2023-05-18T08:14:53.421Z,47008
2023-05-18T08:16:09.552Z,47104
2023-05-18T08:17:25.712Z,48608
2023-05-18T08:18:41.851Z,49152
2023-05-18T08:19:57.977Z,50144
2023-05-18T08:21:14.108Z,48224
2023-05-18T08:22:30.238Z,47904
2023-05-18T08:23:46.383Z,47712
2023-05-18T08:25:02.528Z,46720
2023-05-18T08:26:18.653Z,46304
2023-05-18T08:27:34.802Z,45504
2023-05-18T08:28:50.929Z,46304
2023-05-18T08:30:07.070Z,45632
2023-05-18T08:31:23.200Z,45952
2023-05-18T08:32:39.349Z,46560
2023-05-18T08:33:55.545Z,45856
2023-05-18T08:35:10.784Z,46496
2023-05-18T08:36:26.963Z,47104
2023-05-18T08:37:42.176Z,48448
2023-05-18T08:38:58.317Z,49952
2023-05-18T08:40:14.454Z,51488
2023-05-18T08:41:30.590Z,12216
2023-05-18T08:42:46.724Z,8852
2023-05-18T08:44:02.850Z,9104
2023-05-18T08:45:18.999Z,13316
2023-05-18T08:46:35.138Z,15860
2023-05-18T08:47:51.281Z,17628
2023-05-18T08:49:07.418Z,26656
2023-05-18T08:50:23.540Z,28960
2023-05-18T08:51:39.685Z,52864
2023-05-18T08:52:55.814Z,62784
2023-05-18T08:54:11.960Z,61312
2023-05-18T08:55:28.097Z,61472
2023-05-18T08:56:44.230Z,60448
2023-05-18T08:58:00.362Z,60224
2023-05-18T08:59:16.512Z,59488
2023-05-18T09:00:32.632Z,59584
2023-05-18T09:01:48.786Z,56992
2023-05-18T09:03:04.913Z,58720
2023-05-18T09:04:21.039Z,58880
2023-05-18T09:05:37.182Z,58240
2023-05-18T09:06:53.317Z,60480
2023-05-18T09:08:09.462Z,32096
2023-05-18T09:09:25.652Z,64192
2023-05-18T09:10:40.897Z,52704
2023-05-18T09:11:56.093Z,60960
2023-05-18T09:13:11.249Z,47296
2023-05-18T09:14:27.392Z,45024
2023-05-18T09:15:43.542Z,61184
2023-05-18T09:16:59.675Z,62976
2023-05-18T09:18:15.793Z,62656
2023-05-18T09:19:31.942Z,63744
2023-05-18T09:20:48.088Z,66048
2023-05-18T09:22:04.217Z,67616
2023-05-18T09:23:20.345Z,67616
2023-05-18T09:24:36.479Z,68320
2023-05-18T09:25:52.629Z,66592
2023-05-18T09:27:08.773Z,65984
2023-05-18T09:28:24.908Z,23200
2023-05-18T09:29:41.046Z,12940
2023-05-18T09:30:57.171Z,11180
2023-05-18T09:32:13.313Z,9928
2023-05-18T09:33:29.454Z,11628
2023-05-18T09:34:45.593Z,9064
2023-05-18T09:36:01.729Z,9168
2023-05-18T09:37:17.860Z,8860
2023-05-18T09:38:34.001Z,8548
2023-05-18T09:39:50.145Z,8384
2023-05-18T09:41:06.277Z,7976
2023-05-18T09:42:22.409Z,11760
2023-05-18T09:43:38.542Z,9928
2023-05-18T09:44:54.683Z,8256
2023-05-18T09:46:10.835Z,8784
2023-05-18T09:47:26.963Z,9880
2023-05-18T09:48:43.093Z,10372
2023-05-18T09:49:59.229Z,9692
2023-05-18T09:51:15.366Z,10112
2023-05-18T09:52:31.506Z,11908
2023-05-18T09:53:47.646Z,31936
2023-05-18T09:55:03.783Z,26752
2023-05-18T09:56:19.916Z,26624
2023-05-18T09:57:36.050Z,25952
2023-05-18T09:58:52.195Z,25184
2023-05-18T10:00:08.384Z,25984
2023-05-18T10:01:23.628Z,25376
2023-05-18T10:02:38.823Z,21920
2023-05-18T10:03:54.970Z,9264
2023-05-18T10:05:11.100Z,9044
2023-05-18T10:06:27.235Z,8940
2023-05-18T10:07:43.364Z,8244
2023-05-18T10:08:59.524Z,8168
2023-05-18T10:10:15.659Z,8000
2023-05-18T10:11:31.790Z,7452
2023-05-18T10:12:47.922Z,7344
2023-05-18T10:14:04.000Z,7232
2023-05-18T10:15:20.200Z,7192
2023-05-18T10:16:36.327Z,7548
2023-05-18T10:17:52.473Z,7944
2023-05-18T10:19:08.600Z,8312
2023-05-18T10:20:24.725Z,8884
2023-05-18T10:21:40.889Z,9368
2023-05-18T10:22:57.020Z,9420
2023-05-18T10:24:13.144Z,8976
2023-05-18T10:25:29.287Z,8012
2023-05-18T10:26:45.415Z,7548
2023-05-18T10:28:01.569Z,7216
2023-05-18T10:29:17.700Z,6900
2023-05-18T10:30:33.831Z,6464
2023-05-18T10:31:49.961Z,6268
2023-05-18T10:33:06.099Z,5992
2023-05-18T10:34:22.314Z,6108
2023-05-18T10:35:37.541Z,6388
2023-05-18T10:36:52.753Z,6620
2023-05-18T10:38:08.889Z,7088
2023-05-18T10:39:25.024Z,7780
2023-05-18T10:40:41.162Z,8660
2023-05-18T10:41:57.305Z,9280
2023-05-18T10:43:13.424Z,10016
2023-05-18T10:44:29.586Z,10920
2023-05-18T10:45:45.717Z,11780
2023-05-18T10:47:01.846Z,15976
2023-05-18T10:48:17.974Z,12328
2023-05-18T10:49:34.116Z,11588
2023-05-18T10:50:50.261Z,10960
2023-05-18T10:52:06.399Z,8980
2023-05-18T10:53:22.533Z,8428
2023-05-18T10:54:38.664Z,8036
2023-05-18T10:55:54.784Z,7764
2023-05-18T10:57:10.947Z,7624
2023-05-18T10:58:27.081Z,7348
2023-05-18T10:59:43.206Z,10664
2023-05-18T11:00:59.346Z,6632
2023-05-18T11:02:15.484Z,6260
2023-05-18T11:03:31.619Z,6180
2023-05-18T11:04:47.756Z,6668
2023-05-18T11:06:03.891Z,7332
2023-05-18T11:07:20.021Z,7724
2023-05-18T11:08:36.225Z,7500
2023-05-18T11:09:51.482Z,6832
2023-05-18T11:11:07.657Z,6416
2023-05-18T11:12:22.883Z,6332
2023-05-18T11:13:39.011Z,6044
2023-05-18T11:14:55.155Z,5672
2023-05-18T11:16:11.293Z,5664
2023-05-18T11:17:27.410Z,5768
2023-05-18T11:18:43.560Z,5956
2023-05-18T11:19:59.698Z,6360
2023-05-18T11:21:15.830Z,6620
2023-05-18T11:22:31.972Z,6708
2023-05-18T11:23:48.088Z,6888
2023-05-18T11:25:04.233Z,7072
2023-05-18T11:26:20.387Z,7120
2023-05-18T11:27:36.507Z,7720
2023-05-18T11:28:52.645Z,8092
2023-05-18T11:30:08.770Z,8604
2023-05-18T11:31:24.900Z,10388
2023-05-18T11:32:41.064Z,10520
2023-05-18T11:33:57.197Z,9664
2023-05-18T11:35:13.332Z,8760
2023-05-18T11:36:29.463Z,8608
2023-05-18T11:37:45.592Z,8420
2023-05-18T11:39:01.741Z,8252
2023-05-18T11:40:17.871Z,7968
2023-05-18T11:41:34.006Z,8024
2023-05-18T11:42:50.144Z,8108
2023-05-18T11:44:06.334Z,7292
2023-05-18T11:45:21.557Z,7316
2023-05-18T11:46:36.767Z,7384
2023-05-18T11:47:52.897Z,7308
2023-05-18T11:49:09.049Z,7212
2023-05-18T11:50:25.178Z,7196
2023-05-18T11:51:41.319Z,7040
2023-05-18T11:52:57.460Z,6764
2023-05-18T11:54:13.589Z,6816
2023-05-18T11:55:29.737Z,6944
2023-05-18T11:56:45.882Z,7084
2023-05-18T11:58:02.012Z,7152
2023-05-18T11:59:18.142Z,7320
2023-05-18T12:00:34.274Z,8180
2023-05-18T12:01:50.421Z,7680
2023-05-18T12:03:06.557Z,7152
2023-05-18T12:04:22.693Z,7036
2023-05-18T12:05:38.830Z,6416
2023-05-18T12:06:54.963Z,6192
2023-05-18T12:08:11.103Z,6736
2023-05-18T12:09:27.246Z,6236
2023-05-18T12:10:43.368Z,6608
2023-05-18T12:11:59.502Z,6724
2023-05-18T12:13:15.628Z,6616
2023-05-18T12:14:31.789Z,6204
2023-05-18T12:15:47.927Z,5836
2023-05-18T12:17:04.049Z,5484
2023-05-18T12:18:20.237Z,5592
2023-05-18T12:19:35.481Z,6960
2023-05-18T12:20:50.684Z,6944
2023-05-18T12:22:05.846Z,7472
2023-05-18T12:23:22.000Z,7684
2023-05-18T12:24:38.134Z,7196
2023-05-18T12:25:54.249Z,8088
2023-05-18T12:27:10.397Z,7340
2023-05-18T12:28:26.522Z,6800
2023-05-18T12:29:42.676Z,6472
2023-05-18T12:30:58.815Z,5932
2023-05-18T12:32:14.936Z,6092
2023-05-18T12:33:31.063Z,7116
2023-05-18T12:34:47.199Z,7252
2023-05-18T12:36:03.362Z,6548
2023-05-18T12:37:19.484Z,5752
2023-05-18T12:38:35.626Z,5352
2023-05-18T12:39:51.745Z,5292
2023-05-18T12:41:07.881Z,5272
2023-05-18T12:42:24.036Z,5564
2023-05-18T12:43:40.163Z,5760
2023-05-18T12:44:56.313Z,5852
2023-05-18T12:46:12.436Z,5948
2023-05-18T12:47:28.563Z,6328
2023-05-18T12:48:44.713Z,6452
2023-05-18T12:50:00.853Z,6016
2023-05-18T12:51:16.981Z,6044
2023-05-18T12:52:33.111Z,6156
2023-05-18T12:53:49.256Z,6064
2023-05-18T12:55:05.396Z,5760
2023-05-18T12:56:21.541Z,5552
2023-05-18T12:57:37.662Z,5412
2023-05-18T12:58:53.795Z,5244
2023-05-18T13:00:09.940Z,4968
2023-05-18T13:01:26.091Z,4764
2023-05-18T13:02:42.221Z,4556
2023-05-18T13:03:58.357Z,4416
2023-05-18T13:05:14.487Z,4348
2023-05-18T13:06:30.623Z,4092
2023-05-18T13:07:46.765Z,4024
2023-05-18T13:09:02.958Z,4132
2023-05-18T13:10:18.194Z,4392
2023-05-18T13:11:33.393Z,4388
2023-05-18T13:12:49.525Z,4448
2023-05-18T13:14:05.673Z,4540
2023-05-18T13:15:21.796Z,4592
2023-05-18T13:16:37.929Z,4612
2023-05-18T13:17:54.000Z,4720
2023-05-18T13:19:10.222Z,4836
2023-05-18T13:20:26.345Z,4892
2023-05-18T13:21:42.489Z,4932
2023-05-18T13:22:58.618Z,4972
2023-05-18T13:24:14.769Z,4944
2023-05-18T13:25:30.902Z,4848
2023-05-18T13:26:47.036Z,4780
2023-05-18T13:28:03.158Z,4740
2023-05-18T13:29:19.293Z,4680
2023-05-18T13:30:35.435Z,4688
2023-05-18T13:31:51.575Z,4760
2023-05-18T13:33:07.708Z,4768
2023-05-18T13:34:23.839Z,4688
2023-05-18T13:35:39.979Z,4580
2023-05-18T13:36:56.125Z,4460
2023-05-18T13:38:12.266Z,4440
2023-05-18T13:39:28.401Z,4432
2023-05-18T13:40:44.532Z,4404
2023-05-18T13:42:00.668Z,4348
2023-05-18T13:43:16.873Z,4320
2023-05-18T13:44:32.113Z,4324
2023-05-18T13:45:48.285Z,4372
2023-05-18T13:47:03.501Z,4472
2023-05-18T13:48:19.632Z,4548
2023-05-18T13:49:35.769Z,4600
2023-05-18T13:50:51.897Z,4680
2023-05-18T13:52:08.027Z,4764
2023-05-18T13:53:24.175Z,4760
2023-05-18T13:54:40.317Z,4732
2023-05-18T13:55:56.445Z,4692
2023-05-18T13:57:12.583Z,4648
2023-05-18T13:58:28.713Z,4584
2023-05-18T13:59:44.863Z,4480
2023-05-18T14:01:00.999Z,4404
2023-05-18T14:02:17.136Z,4336
2023-05-18T14:03:33.258Z,4272
2023-05-18T14:04:49.403Z,4192
2023-05-18T14:06:05.546Z,4124
2023-05-18T14:07:21.696Z,4024
2023-05-18T14:08:37.816Z,3916
2023-05-18T14:09:53.948Z,3804
2023-05-18T14:11:10.076Z,3688
2023-05-18T14:12:26.216Z,3584
2023-05-18T14:13:42.363Z,3504
2023-05-18T14:14:58.481Z,3452
2023-05-18T14:16:14.613Z,3448
2023-05-18T14:17:30.746Z,3428
2023-05-18T14:20:03.145Z,3332
2023-05-18T14:21:19.439Z,3296
2023-05-18T14:22:34.588Z,3260
2023-05-18T14:23:50.724Z,3204
2023-05-18T14:25:06.868Z,3148
2023-05-18T14:26:22.991Z,3100
2023-05-18T14:27:39.128Z,3024
2023-05-18T14:28:55.261Z,2944
2023-05-18T14:30:11.414Z,2880
2023-05-18T14:31:27.544Z,2812
2023-05-18T14:32:43.685Z,2776
2023-05-18T14:33:59.804Z,2712
2023-05-18T14:35:15.942Z,2644
2023-05-18T14:36:32.099Z,2572
2023-05-18T14:37:48.223Z,2540
2023-05-18T14:39:04.367Z,2552
2023-05-18T14:40:20.487Z,2536
2023-05-18T14:41:36.619Z,2532
2023-05-18T14:42:52.785Z,2532
2023-05-18T14:44:08.917Z,2528
2023-05-18T14:45:25.040Z,2520
2023-05-18T14:46:41.177Z,2512
2023-05-18T14:47:57.320Z,2476
2023-05-18T14:49:13.455Z,2476
2023-05-18T14:50:29.596Z,2492
2023-05-18T14:51:45.725Z,2492
2023-05-18T14:53:01.859Z,2492
2023-05-18T14:54:17.988Z,2476
2023-05-18T14:55:34.134Z,2468
2023-05-18T14:56:50.269Z,2492
2023-05-18T14:58:06.411Z,2496
2023-05-18T14:59:22.537Z,2500
2023-05-18T15:00:38.664Z,2524
2023-05-18T15:01:54.826Z,2560
2023-05-18T15:03:10.961Z,2580
2023-05-18T15:04:27.082Z,2548
2023-05-18T15:05:43.227Z,2444
2023-05-18T15:06:59.346Z,2336
2023-05-18T15:08:15.496Z,2296
2023-05-18T15:09:31.699Z,2252
2023-05-18T15:10:46.925Z,2204
2023-05-18T15:12:02.149Z,2208
2023-05-18T15:13:18.279Z,2284
2023-05-18T15:14:34.398Z,2312
2023-05-18T15:15:50.544Z,2360
2023-05-18T15:17:06.675Z,2412
2023-05-18T15:18:22.830Z,2452
2023-05-18T15:19:38.955Z,2468
2023-05-18T15:20:55.081Z,2484
2023-05-18T15:22:11.226Z,2492
2023-05-18T15:23:27.345Z,2520
2023-05-18T15:24:43.505Z,2552
2023-05-18T15:25:59.639Z,2564
2023-05-18T15:27:15.767Z,2560
2023-05-18T15:28:31.909Z,2564
2023-05-18T15:29:48.032Z,2560
2023-05-18T15:31:04.187Z,2556
2023-05-18T15:32:20.317Z,2548
2023-05-18T15:33:36.444Z,2556
2023-05-18T15:34:52.588Z,2572
2023-05-18T15:36:08.706Z,2588
2023-05-18T15:37:24.860Z,2572
2023-05-18T15:38:41.000Z,2540
2023-05-18T15:39:57.126Z,2484
2023-05-18T15:41:13.267Z,2440
2023-05-18T15:42:29.400Z,2360
2023-05-18T15:43:45.594Z,2280
2023-05-18T15:45:00.855Z,2200
2023-05-18T15:46:16.066Z,2124
2023-05-18T15:47:32.216Z,2044
2023-05-18T15:48:48.352Z,1968
2023-05-18T15:50:04.480Z,1904
2023-05-18T15:51:20.617Z,1840
2023-05-18T15:52:36.753Z,1772
2023-05-18T15:53:52.898Z,1700
2023-05-18T15:55:09.021Z,1604
2023-05-18T15:56:25.169Z,1524
2023-05-18T15:57:41.298Z,1456
2023-05-18T15:58:57.425Z,1432
2023-05-18T16:00:13.573Z,1428
2023-05-18T16:01:29.702Z,1440
2023-05-18T16:02:45.847Z,1456
2023-05-18T16:04:01.980Z,1484
2023-05-18T16:05:18.114Z,1504
2023-05-18T16:06:34.247Z,1524
2023-05-18T16:07:50.385Z,1548
2023-05-18T16:09:06.523Z,1584
2023-05-18T16:10:22.651Z,1620
2023-05-18T16:11:38.785Z,1664
2023-05-18T16:12:54.938Z,1700
2023-05-18T16:14:11.078Z,1736
2023-05-18T16:15:27.195Z,1772
2023-05-18T16:16:43.341Z,1796
2023-05-18T16:17:59.531Z,1800
2023-05-18T16:19:14.766Z,1772
2023-05-18T16:20:30.954Z,1744
2023-05-18T16:21:46.172Z,1712
2023-05-18T16:23:02.317Z,1664
2023-05-18T16:24:18.448Z,1620
2023-05-18T16:25:34.581Z,1592
2023-05-18T16:26:50.699Z,1584
2023-05-18T16:28:06.848Z,1596
2023-05-18T16:29:22.979Z,1604
2023-05-18T16:30:39.131Z,1604
2023-05-18T16:31:55.262Z,1612
2023-05-18T16:33:11.394Z,1608
2023-05-18T16:34:27.529Z,1616
2023-05-18T16:35:43.676Z,1620
2023-05-18T16:36:59.810Z,1612
2023-05-18T16:38:15.944Z,1604
2023-05-18T16:39:32.079Z,1596
2023-05-18T16:40:48.205Z,1592
2023-05-18T16:42:04.357Z,1572
2023-05-18T16:43:20.482Z,1560
2023-05-18T16:44:36.615Z,1544
2023-05-18T16:45:52.746Z,1528
2023-05-18T16:47:08.880Z,1508
2023-05-18T16:48:25.026Z,1460
2023-05-18T16:49:41.163Z,1424
2023-05-18T16:50:57.449Z,1388
2023-05-18T16:52:12.598Z,1356
2023-05-18T16:53:28.743Z,1332
2023-05-18T16:54:44.883Z,1312
2023-05-18T16:56:01.017Z,1296
2023-05-18T16:57:17.148Z,1268
2023-05-18T16:58:33.277Z,1236
2023-05-18T16:59:49.433Z,1196
2023-05-18T17:01:05.555Z,1176
2023-05-18T17:02:21.681Z,1160
2023-05-18T17:03:37.830Z,1140
2023-05-18T17:04:53.950Z,1124
2023-05-18T17:06:10.110Z,1112
2023-05-18T17:07:26.237Z,1112
2023-05-18T17:08:42.375Z,1096
2023-05-18T17:09:58.512Z,1104